Time;durP1;ratioP1;P1;durP2;ratioP2;P2;SDS_P1;SDS_P2;PMS_P1;PMS_P2;Temp;Humidity;BMP_temperature;BMP_pressure;BME280_temperature;BME280_humidity;BME280_pressure;Samples;Min_cycle;Max_cycle;Signal;HPM_P1;HPM_P2
2024/03/20 00:01:09;;;;;;;15.43;7.22;;;;;;;;;;5015603;28;20061;-61
2024/03/20 00:03:34;;;;;;;15.80;7.70;;;;;;;;;;5015666;28;20041;-60
2024/03/20 00:05:59;;;;;;;20.27;8.00;;;;;;;;;;5014745;28;20021;-60
2024/03/20 00:08:25;;;;;;;15.80;7.13;;;;;;;;;;5015557;28;20021;-59
2024/03/20 00:10:50;;;;;;;15.75;8.40;;;;;;;;;;5015242;28;20338;-59
2024/03/20 00:13:16;;;;;;;16.45;8.07;;;;;;;;;;5013589;28;20014;-58
2024/03/20 00:15:41;;;;;;;17.73;7.87;;;;;;;;;;5012376;28;20105;-58
2024/03/20 00:18:06;;;;;;;16.83;8.32;;;;;;;;;;5014658;28;20117;-59
2024/03/20 00:20:31;;;;;;;17.60;8.30;;;;;;;;;;5015350;28;20056;-58
2024/03/20 00:22:56;;;;;;;16.80;8.20;;;;;;;;;;5013943;28;20512;-60
2024/03/20 00:25:22;;;;;;;18.10;8.30;;;;;;;;;;5013729;28;20090;-59
2024/03/20 00:27:47;;;;;;;19.02;8.73;;;;;;;;;;5015466;28;20025;-59
2024/03/20 00:30:12;;;;;;;19.33;8.93;;;;;;;;;;5016748;28;20098;-59
2024/03/20 00:32:37;;;;;;;16.83;8.50;;;;;;;;;;5014905;28;20022;-58
2024/03/20 00:35:05;;;;;;;18.73;8.40;;;;;;;;;;5015152;28;20038;-59
2024/03/20 00:37:30;;;;;;;17.45;8.45;;;;;;;;;;5013702;28;20390;-59
2024/03/20 00:39:55;;;;;;;19.43;8.40;;;;;;;;;;5014549;28;20026;-59
2024/03/20 00:42:20;;;;;;;17.58;8.23;;;;;;;;;;5014089;28;20116;-59
2024/03/20 00:44:45;;;;;;;19.03;8.13;;;;;;;;;;5014585;28;20018;-60
2024/03/20 00:47:10;;;;;;;18.52;8.10;;;;;;;;;;5014444;28;20022;-59
2024/03/20 00:49:35;;;;;;;18.65;7.50;;;;;;;;;;5014100;28;20026;-58
2024/03/20 00:52:01;;;;;;;18.97;8.70;;;;;;;;;;5012814;28;20038;-59
2024/03/20 00:54:26;;;;;;;17.95;8.25;;;;;;;;;;5012857;28;20038;-58
2024/03/20 00:56:51;;;;;;;19.13;9.13;;;;;;;;;;5014614;28;20022;-59
2024/03/20 00:59:16;;;;;;;18.38;8.25;;;;;;;;;;5013830;28;20056;-61
2024/03/20 01:01:41;;;;;;;18.33;7.88;;;;;;;;;;5014070;28;20044;-58
2024/03/20 01:04:07;;;;;;;16.70;7.90;;;;;;;;;;5009652;28;20038;-59
2024/03/20 01:06:33;;;;;;;16.83;7.93;;;;;;;;;;5012598;28;20022;-59
2024/03/20 01:08:58;;;;;;;15.95;7.45;;;;;;;;;;5013296;28;20030;-59
2024/03/20 01:11:23;;;;;;;17.83;8.47;;;;;;;;;;5026824;28;20042;-58
2024/03/20 01:13:49;;;;;;;16.25;7.75;;;;;;;;;;5008878;28;20042;-59
2024/03/20 01:16:14;;;;;;;23.52;8.35;;;;;;;;;;5011920;28;20074;-58
2024/03/20 01:18:39;;;;;;;17.83;8.13;;;;;;;;;;5010256;28;20482;-59
2024/03/20 01:21:05;;;;;;;16.40;8.43;;;;;;;;;;5013421;28;20030;-59
2024/03/20 01:23:30;;;;;;;19.77;8.70;;;;;;;;;;5012486;28;20033;-59
2024/03/20 01:25:57;;;;;;;17.67;8.38;;;;;;;;;;5012791;28;20030;-60
2024/03/20 01:28:27;;;;;;;17.63;7.53;;;;;;;;;;5013489;28;20029;-59
2024/03/20 01:30:52;;;;;;;18.35;7.93;;;;;;;;;;5012355;28;20046;-59
2024/03/20 01:33:17;;;;;;;17.90;8.20;;;;;;;;;;5009737;28;20049;-58
2024/03/20 01:35:42;;;;;;;17.42;9.13;;;;;;;;;;5013903;28;20381;-59
2024/03/20 01:38:08;;;;;;;16.80;7.70;;;;;;;;;;5015535;28;20410;-59
2024/03/20 01:40:33;;;;;;;17.13;7.50;;;;;;;;;;5015762;28;20108;-59
2024/03/20 01:42:58;;;;;;;16.27;7.82;;;;;;;;;;5029111;28;20172;-60
2024/03/20 01:45:23;;;;;;;16.15;7.53;;;;;;;;;;5019057;28;20018;-61
2024/03/20 01:47:48;;;;;;;16.45;7.82;;;;;;;;;;5018485;28;20445;-60
2024/03/20 01:50:14;;;;;;;19.10;8.10;;;;;;;;;;5016083;28;20045;-59
2024/03/20 01:52:47;;;;;;;17.58;8.45;;;;;;;;;;5015688;28;20022;-60
2024/03/20 01:55:12;;;;;;;18.42;8.30;;;;;;;;;;5016207;28;20032;-58
2024/03/20 01:57:37;;;;;;;17.40;8.18;;;;;;;;;;5015170;28;20017;-60
2024/03/20 02:00:03;;;;;;;18.60;8.02;;;;;;;;;;5014745;28;20033;-59
2024/03/20 02:02:28;;;;;;;19.48;8.57;;;;;;;;;;5019708;28;20076;-59
2024/03/20 02:04:53;;;;;;;16.55;7.93;;;;;;;;;;5019313;28;20034;-59
2024/03/20 02:07:18;;;;;;;20.88;9.50;;;;;;;;;;5020289;28;20048;-58
2024/03/20 02:09:43;;;;;;;19.90;8.83;;;;;;;;;;5018542;28;20452;-61
2024/03/20 02:12:09;;;;;;;17.77;8.07;;;;;;;;;;5018137;28;20026;-59
2024/03/20 02:14:38;;;;;;;15.48;7.43;;;;;;;;;;5018211;28;20037;-58
2024/03/20 02:17:03;;;;;;;17.80;7.82;;;;;;;;;;5029059;28;20022;-59
2024/03/20 02:19:28;;;;;;;18.33;7.63;;;;;;;;;;5011594;28;20474;-60
2024/03/20 02:21:53;;;;;;;19.20;8.80;;;;;;;;;;5012219;28;20057;-59
2024/03/20 02:24:19;;;;;;;17.85;7.55;;;;;;;;;;5012044;28;20114;-59
2024/03/20 02:26:44;;;;;;;15.63;7.90;;;;;;;;;;5012523;28;20522;-60
2024/03/20 02:29:09;;;;;;;18.42;8.50;;;;;;;;;;5027490;28;20026;-60
2024/03/20 02:31:34;;;;;;;17.80;7.82;;;;;;;;;;5017760;28;20055;-58
2024/03/20 02:34:01;;;;;;;21.10;8.75;;;;;;;;;;5021095;28;20022;-58
2024/03/20 02:36:26;;;;;;;18.50;8.93;;;;;;;;;;5018510;28;20106;-60
2024/03/20 02:38:51;;;;;;;17.40;8.43;;;;;;;;;;5013460;28;20045;-59
2024/03/20 02:41:17;;;;;;;19.70;8.55;;;;;;;;;;5013928;28;20494;-59
2024/03/20 02:43:43;;;;;;;16.70;8.20;;;;;;;;;;5017687;28;20041;-60
2024/03/20 02:46:09;;;;;;;16.50;7.97;;;;;;;;;;5014072;28;20026;-60
2024/03/20 02:48:34;;;;;;;20.52;8.57;;;;;;;;;;5013637;28;20108;-59
2024/03/20 02:51:00;;;;;;;17.73;8.17;;;;;;;;;;5014482;28;20490;-59
2024/03/20 02:53:25;;;;;;;18.00;8.32;;;;;;;;;;5012428;28;20494;-59
2024/03/20 02:55:50;;;;;;;16.08;7.65;;;;;;;;;;5026627;28;20026;-59
2024/03/20 02:58:15;;;;;;;17.98;9.23;;;;;;;;;;5012245;28;20050;-60
2024/03/20 03:00:41;;;;;;;20.15;9.13;;;;;;;;;;5012258;28;20022;-59
2024/03/20 03:03:06;;;;;;;18.42;8.27;;;;;;;;;;5011140;28;20041;-58
2024/03/20 03:05:31;;;;;;;18.37;8.40;;;;;;;;;;5008565;28;20609;-57
2024/03/20 03:07:56;;;;;;;20.53;8.73;;;;;;;;;;5011504;28;20069;-59
2024/03/20 03:10:23;;;;;;;18.38;8.80;;;;;;;;;;5010116;28;20030;-58
2024/03/20 03:12:48;;;;;;;16.50;8.27;;;;;;;;;;5011762;28;20554;-59
2024/03/20 03:15:14;;;;;;;19.70;8.50;;;;;;;;;;5012071;28;20065;-58
2024/03/20 03:17:43;;;;;;;19.58;9.13;;;;;;;;;;5011693;28;20015;-58
2024/03/20 03:20:14;;;;;;;18.05;7.75;;;;;;;;;;5011636;28;20028;-59
2024/03/20 03:22:43;;;;;;;21.40;9.70;;;;;;;;;;5012399;28;20065;-59
2024/03/20 03:25:08;;;;;;;18.65;9.23;;;;;;;;;;5010834;28;20045;-59
2024/03/20 03:27:34;;;;;;;22.08;8.60;;;;;;;;;;5011513;28;20022;-58
2024/03/20 03:29:59;;;;;;;17.67;8.37;;;;;;;;;;5010798;28;20040;-59
2024/03/20 03:32:24;;;;;;;19.52;8.50;;;;;;;;;;5026487;28;20026;-59
2024/03/20 03:34:49;;;;;;;18.58;8.60;;;;;;;;;;5010990;28;20153;-59
2024/03/20 03:37:14;;;;;;;20.63;8.55;;;;;;;;;;5011188;28;20037;-59
2024/03/20 03:39:39;;;;;;;18.58;8.20;;;;;;;;;;5010151;28;20026;-58
2024/03/20 03:42:06;;;;;;;19.65;8.90;;;;;;;;;;5016584;28;20068;-58
2024/03/20 03:44:31;;;;;;;21.30;8.73;;;;;;;;;;5030767;28;20099;-59
2024/03/20 03:46:56;;;;;;;18.30;9.27;;;;;;;;;;5031596;28;20072;-59
2024/03/20 03:49:21;;;;;;;18.47;8.50;;;;;;;;;;5031106;28;20089;-59
2024/03/20 03:51:46;;;;;;;20.00;9.07;;;;;;;;;;5027240;28;20018;-59
2024/03/20 03:54:12;;;;;;;18.45;9.32;;;;;;;;;;5012056;28;20457;-60
2024/03/20 03:56:37;;;;;;;19.23;7.72;;;;;;;;;;5017341;28;20065;-59
2024/03/20 03:59:02;;;;;;;17.73;7.87;;;;;;;;;;5033283;28;20026;-58
2024/03/20 04:01:27;;;;;;;17.92;8.23;;;;;;;;;;5017586;28;20033;-59
2024/03/20 04:03:52;;;;;;;18.75;8.60;;;;;;;;;;5013749;28;20566;-58
2024/03/20 04:06:18;;;;;;;19.27;9.03;;;;;;;;;;5011861;28;20022;-60
2024/03/20 04:08:43;;;;;;;16.85;8.05;;;;;;;;;;5012604;28;20080;-59
2024/03/20 04:11:09;;;;;;;16.92;8.52;;;;;;;;;;5014495;28;20052;-59
2024/03/20 04:13:34;;;;;;;16.37;8.33;;;;;;;;;;5017376;28;20602;-59
2024/03/20 04:16:00;;;;;;;19.80;8.60;;;;;;;;;;5017016;28;20040;-59
2024/03/20 04:18:26;;;;;;;17.58;8.70;;;;;;;;;;5018254;28;20032;-60
2024/03/20 04:20:51;;;;;;;21.13;9.32;;;;;;;;;;5018450;28;20022;-59
2024/03/20 04:23:16;;;;;;;18.27;8.20;;;;;;;;;;5018500;28;20049;-60
2024/03/20 04:25:41;;;;;;;19.77;8.60;;;;;;;;;;5018030;28;20087;-59
2024/03/20 04:28:06;;;;;;;19.33;7.68;;;;;;;;;;5018998;28;20025;-59
2024/03/20 04:30:32;;;;;;;19.13;8.60;;;;;;;;;;5020046;28;20036;-58
2024/03/20 04:32:57;;;;;;;19.13;8.93;;;;;;;;;;5020081;28;20540;-59
2024/03/20 04:35:22;;;;;;;18.25;8.55;;;;;;;;;;5020923;28;20018;-59
2024/03/20 04:37:47;;;;;;;19.90;8.97;;;;;;;;;;5018444;28;20014;-59
2024/03/20 04:40:12;;;;;;;18.98;9.35;;;;;;;;;;5021361;28;20493;-59
2024/03/20 04:42:37;;;;;;;19.20;9.33;;;;;;;;;;5020299;28;20060;-59
2024/03/20 04:45:04;;;;;;;18.42;8.35;;;;;;;;;;5022431;28;20045;-60
2024/03/20 04:47:29;;;;;;;17.63;8.70;;;;;;;;;;5021233;28;20116;-59
2024/03/20 04:49:54;;;;;;;16.73;8.18;;;;;;;;;;5022795;28;20181;-59
2024/03/20 04:52:19;;;;;;;19.63;8.88;;;;;;;;;;5020021;28;20022;-61
2024/03/20 04:54:44;;;;;;;17.77;8.67;;;;;;;;;;5023402;28;20026;-60
2024/03/20 04:57:10;;;;;;;19.30;9.07;;;;;;;;;;5022963;28;20096;-60
2024/03/20 04:59:35;;;;;;;18.03;8.60;;;;;;;;;;5016221;28;20057;-59
2024/03/20 05:02:00;;;;;;;18.83;8.27;;;;;;;;;;5014589;28;20034;-59
2024/03/20 05:04:25;;;;;;;20.33;8.70;;;;;;;;;;5015672;28;20082;-58
2024/03/20 05:06:50;;;;;;;17.10;8.33;;;;;;;;;;5015539;28;20048;-60
2024/03/20 05:09:15;;;;;;;16.88;7.82;;;;;;;;;;5015456;28;20026;-59
2024/03/20 05:11:41;;;;;;;17.13;9.27;;;;;;;;;;5016341;28;20326;-60
2024/03/20 05:14:06;;;;;;;17.70;8.02;;;;;;;;;;5018136;28;20068;-59
2024/03/20 05:16:31;;;;;;;18.73;8.13;;;;;;;;;;5030255;28;20053;-60
2024/03/20 05:18:56;;;;;;;17.83;8.90;;;;;;;;;;5027484;28;20018;-60
2024/03/20 05:21:21;;;;;;;16.43;8.20;;;;;;;;;;5020591;28;20029;-60
2024/03/20 05:23:47;;;;;;;19.77;8.73;;;;;;;;;;5025954;28;20037;-58
2024/03/20 05:26:12;;;;;;;17.13;7.77;;;;;;;;;;5024701;28;20438;-59
2024/03/20 05:28:37;;;;;;;18.23;8.37;;;;;;;;;;5026364;28;20129;-59
2024/03/20 05:31:02;;;;;;;19.27;9.30;;;;;;;;;;5026763;28;20057;-60
2024/03/20 05:33:27;;;;;;;21.30;9.13;;;;;;;;;;5026081;28;20022;-62
2024/03/20 05:35:53;;;;;;;17.77;8.47;;;;;;;;;;5026916;28;20025;-61
2024/03/20 05:38:18;;;;;;;19.23;8.85;;;;;;;;;;5025126;28;20010;-60
2024/03/20 05:40:44;;;;;;;17.92;9.13;;;;;;;;;;5020783;28;20025;-59
2024/03/20 05:43:09;;;;;;;17.77;8.85;;;;;;;;;;5019269;28;20029;-60
2024/03/20 05:45:34;;;;;;;18.00;8.50;;;;;;;;;;5017699;28;20048;-60
2024/03/20 05:47:59;;;;;;;21.15;9.57;;;;;;;;;;5012254;28;20046;-60
2024/03/20 05:50:26;;;;;;;18.30;8.80;;;;;;;;;;5011392;28;20033;-61
2024/03/20 05:52:51;;;;;;;23.75;10.13;;;;;;;;;;5010585;28;20108;-59
2024/03/20 05:55:17;;;;;;;19.27;8.60;;;;;;;;;;5009146;28;20106;-58
2024/03/20 05:57:42;;;;;;;17.95;8.65;;;;;;;;;;5008891;28;20412;-60
2024/03/20 06:00:15;;;;;;;20.67;8.70;;;;;;;;;;5008349;28;20474;-59
2024/03/20 06:02:40;;;;;;;20.73;8.55;;;;;;;;;;5002568;28;20030;-58
2024/03/20 06:05:05;;;;;;;18.15;9.43;;;;;;;;;;5008351;28;20410;-59
2024/03/20 06:07:31;;;;;;;19.80;9.80;;;;;;;;;;5009784;28;20108;-60
2024/03/20 06:09:57;;;;;;;19.70;9.05;;;;;;;;;;5012128;28;20522;-59
2024/03/20 06:12:22;;;;;;;21.07;8.87;;;;;;;;;;5015803;28;20022;-60
2024/03/20 06:14:47;;;;;;;21.33;10.07;;;;;;;;;;5019200;28;20025;-60
2024/03/20 06:17:13;;;;;;;23.10;9.23;;;;;;;;;;5019638;28;20072;-59
2024/03/20 06:19:38;;;;;;;21.40;9.25;;;;;;;;;;5024266;28;20030;-59
2024/03/20 06:22:03;;;;;;;17.65;9.02;;;;;;;;;;5025071;28;20026;-61
2024/03/20 06:24:28;;;;;;;21.60;9.23;;;;;;;;;;5025757;28;20041;-61
2024/03/20 06:26:53;;;;;;;18.80;9.27;;;;;;;;;;5024690;28;20029;-60
2024/03/20 06:29:18;;;;;;;16.48;8.90;;;;;;;;;;5019639;28;20025;-60
2024/03/20 06:31:44;;;;;;;18.73;9.38;;;;;;;;;;5018866;28;20041;-60
2024/03/20 06:34:10;;;;;;;21.77;10.07;;;;;;;;;;5035409;28;20026;-61
2024/03/20 06:36:36;;;;;;;20.98;9.40;;;;;;;;;;5024094;28;20044;-60
2024/03/20 06:39:01;;;;;;;17.58;8.80;;;;;;;;;;5025613;28;20025;-60
2024/03/20 06:41:26;;;;;;;20.47;9.20;;;;;;;;;;5024645;28;20037;-61
2024/03/20 06:43:52;;;;;;;18.17;8.55;;;;;;;;;;5021677;28;20128;-61
2024/03/20 06:46:17;;;;;;;19.50;9.40;;;;;;;;;;5032544;28;20091;-61
2024/03/20 06:48:46;;;;;;;19.65;9.45;;;;;;;;;;5021788;28;20006;-61
2024/03/20 06:51:11;;;;;;;19.02;9.07;;;;;;;;;;5024574;28;20026;-60
2024/03/20 06:53:37;;;;;;;20.50;9.50;;;;;;;;;;5025180;28;20034;-63
2024/03/20 06:56:05;;;;;;;17.98;8.68;;;;;;;;;;5012059;28;20032;-59
2024/03/20 06:58:30;;;;;;;17.65;9.30;;;;;;;;;;5015847;28;20029;-60
2024/03/20 07:00:55;;;;;;;16.98;8.65;;;;;;;;;;5013554;28;20036;-61
2024/03/20 07:03:22;;;;;;;17.83;9.68;;;;;;;;;;5006096;28;20045;-61
2024/03/20 07:05:47;;;;;;;20.08;9.15;;;;;;;;;;5011056;28;20014;-62
2024/03/20 07:08:12;;;;;;;18.93;9.77;;;;;;;;;;5011154;28;20051;-59
2024/03/20 07:10:37;;;;;;;17.35;8.80;;;;;;;;;;5023873;28;20394;-60
2024/03/20 07:13:04;;;;;;;20.43;9.53;;;;;;;;;;5008479;28;20378;-60
2024/03/20 07:15:29;;;;;;;22.70;9.57;;;;;;;;;;5008917;28;20164;-61
2024/03/20 07:17:54;;;;;;;18.83;9.77;;;;;;;;;;5007809;28;20046;-61
2024/03/20 07:20:19;;;;;;;17.70;9.23;;;;;;;;;;5008931;28;20029;-59
2024/03/20 07:22:45;;;;;;;18.07;9.00;;;;;;;;;;5008354;28;20073;-60
2024/03/20 07:25:11;;;;;;;16.83;8.02;;;;;;;;;;5008772;28;20109;-63
2024/03/20 07:27:36;;;;;;;18.38;9.40;;;;;;;;;;5010038;28;20104;-60
2024/03/20 07:30:03;;;;;;;19.57;9.50;;;;;;;;;;5007158;28;20469;-59
2024/03/20 07:32:28;;;;;;;19.52;9.55;;;;;;;;;;5007519;28;20109;-61
2024/03/20 07:34:53;;;;;;;18.58;8.32;;;;;;;;;;5010001;28;20460;-60
2024/03/20 07:37:18;;;;;;;17.13;8.70;;;;;;;;;;5007736;28;20096;-60
2024/03/20 07:39:44;;;;;;;17.90;8.80;;;;;;;;;;5012998;28;20040;-60
2024/03/20 07:42:09;;;;;;;16.63;9.33;;;;;;;;;;5014475;28;20026;-61
2024/03/20 07:44:34;;;;;;;18.80;8.63;;;;;;;;;;5009159;28;20375;-60
2024/03/20 07:47:00;;;;;;;16.33;8.63;;;;;;;;;;5011635;28;20685;-60
2024/03/20 07:49:25;;;;;;;19.33;9.80;;;;;;;;;;5012520;28;20501;-61
2024/03/20 07:51:50;;;;;;;17.92;8.90;;;;;;;;;;5012121;28;20029;-61
2024/03/20 07:54:23;;;;;;;18.50;8.05;;;;;;;;;;5014792;28;20022;-60
2024/03/20 07:56:48;;;;;;;16.52;8.68;;;;;;;;;;5013604;28;20021;-60
2024/03/20 07:59:13;;;;;;;19.43;8.60;;;;;;;;;;5013002;28;20412;-60
2024/03/20 08:01:40;;;;;;;19.02;9.23;;;;;;;;;;5014980;28;20370;-61
2024/03/20 08:04:05;;;;;;;15.55;7.95;;;;;;;;;;5015020;28;20033;-60
2024/03/20 08:06:30;;;;;;;17.43;8.63;;;;;;;;;;5011082;28;20038;-61
2024/03/20 08:08:55;;;;;;;15.95;8.25;;;;;;;;;;5015746;28;20021;-60
2024/03/20 08:11:20;;;;;;;16.80;8.60;;;;;;;;;;5015711;28;20096;-60
2024/03/20 08:13:46;;;;;;;15.45;8.52;;;;;;;;;;5015744;28;20021;-61
2024/03/20 08:16:11;;;;;;;18.43;8.80;;;;;;;;;;5014179;28;20064;-60
2024/03/20 08:18:37;;;;;;;16.95;8.43;;;;;;;;;;5015832;28;20084;-60
2024/03/20 08:21:03;;;;;;;18.95;8.45;;;;;;;;;;5014508;28;20535;-61
2024/03/20 08:23:28;;;;;;;16.40;8.15;;;;;;;;;;5015612;28;20178;-61
2024/03/20 08:25:55;;;;;;;16.53;8.47;;;;;;;;;;5014770;28;20022;-59
2024/03/20 08:28:21;;;;;;;16.52;8.73;;;;;;;;;;5014740;28;20026;-60
2024/03/20 08:30:47;;;;;;;15.85;8.27;;;;;;;;;;5014597;28;20037;-60
2024/03/20 08:33:13;;;;;;;15.93;7.75;;;;;;;;;;5015769;28;20037;-60
2024/03/20 08:35:38;;;;;;;17.08;8.25;;;;;;;;;;5018543;28;20517;-60
2024/03/20 08:38:03;;;;;;;15.53;8.03;;;;;;;;;;5019329;28;20058;-61
2024/03/20 08:40:30;;;;;;;17.97;8.50;;;;;;;;;;5020894;28;20443;-60
2024/03/20 08:42:55;;;;;;;17.17;8.20;;;;;;;;;;5024543;28;20484;-64
2024/03/20 08:45:20;;;;;;;15.35;8.00;;;;;;;;;;5018144;28;20038;-62
2024/03/20 08:47:47;;;;;;;15.93;8.73;;;;;;;;;;5029474;28;20100;-59
2024/03/20 08:50:14;;;;;;;16.73;8.10;;;;;;;;;;5025135;28;20085;-60
2024/03/20 08:52:41;;;;;;;15.00;8.25;;;;;;;;;;5027242;28;20010;-60
2024/03/20 08:55:07;;;;;;;19.27;8.18;;;;;;;;;;5033102;28;20030;-60
2024/03/20 08:57:32;;;;;;;16.58;8.40;;;;;;;;;;5035568;28;20026;-61
2024/03/20 09:00:00;;;;;;;16.58;7.95;;;;;;;;;;5035578;28;20041;-61
2024/03/20 09:02:25;;;;;;;15.75;8.10;;;;;;;;;;5032708;28;20083;-61
2024/03/20 09:04:50;;;;;;;14.23;7.10;;;;;;;;;;5028020;28;20033;-60
2024/03/20 09:07:15;;;;;;;16.43;8.83;;;;;;;;;;5015156;28;20095;-60
2024/03/20 09:09:40;;;;;;;16.60;8.45;;;;;;;;;;5017022;28;20030;-60
2024/03/20 09:12:06;;;;;;;16.23;8.43;;;;;;;;;;5016454;28;20033;-60
2024/03/20 09:14:34;;;;;;;18.08;8.52;;;;;;;;;;5015790;28;20025;-61
2024/03/20 09:17:01;;;;;;;15.40;8.45;;;;;;;;;;5015463;28;20018;-64
2024/03/20 09:19:26;;;;;;;;;;;;;;;;;;5017060;28;20033;-60
2024/03/20 09:21:52;;;;;;;16.77;8.07;;;;;;;;;;5013747;28;20293;-60
2024/03/20 09:24:19;;;;;;;15.70;7.80;;;;;;;;;;5012826;28;20488;-60
2024/03/20 09:26:45;;;;;;;17.60;7.50;;;;;;;;;;5013171;28;20584;-59
2024/03/20 09:29:10;;;;;;;14.77;7.60;;;;;;;;;;5013516;28;20025;-61
2024/03/20 09:31:36;;;;;;;14.45;7.20;;;;;;;;;;5011025;28;20034;-60
2024/03/20 09:34:01;;;;;;;13.63;7.30;;;;;;;;;;5012881;28;20021;-60
2024/03/20 09:36:26;;;;;;;13.52;6.88;;;;;;;;;;5012697;28;20022;-61
2024/03/20 09:38:52;;;;;;;13.43;7.40;;;;;;;;;;5012626;28;20025;-61
2024/03/20 09:41:18;;;;;;;14.35;6.43;;;;;;;;;;5013530;28;20120;-59
2024/03/20 09:43:45;;;;;;;11.97;6.30;;;;;;;;;;5013437;28;20114;-61
2024/03/20 09:46:19;;;;;;;14.48;7.15;;;;;;;;;;5023339;28;20886;-61
2024/03/20 09:48:48;;;;;;;11.60;6.28;;;;;;;;;;5010774;28;20028;-61
2024/03/20 09:51:13;;;;;;;12.15;6.70;;;;;;;;;;5012921;28;20025;-61
2024/03/20 09:53:39;;;;;;;12.07;6.30;;;;;;;;;;5012850;28;20026;-61
2024/03/20 09:56:09;;;;;;;12.32;6.57;;;;;;;;;;5012531;28;20359;-61
2024/03/20 09:58:36;;;;;;;13.45;6.78;;;;;;;;;;5012624;28;20101;-60
2024/03/20 10:01:01;;;;;;;13.07;6.20;;;;;;;;;;5008274;28;20033;-61
2024/03/20 10:03:26;;;;;;;12.57;5.97;;;;;;;;;;5011872;28;20026;-61
2024/03/20 10:05:52;;;;;;;12.47;6.67;;;;;;;;;;5012311;28;20018;-61
2024/03/20 10:08:17;;;;;;;13.88;6.93;;;;;;;;;;5011321;28;20083;-60
2024/03/20 10:10:42;;;;;;;14.70;7.55;;;;;;;;;;5012254;28;20093;-60
2024/03/20 10:13:11;;;;;;;14.45;6.55;;;;;;;;;;5012685;28;20029;-61
2024/03/20 10:15:36;;;;;;;12.10;6.80;;;;;;;;;;5011294;28;20044;-60
2024/03/20 10:18:02;;;;;;;10.20;5.95;;;;;;;;;;5013079;28;20501;-61
2024/03/20 10:20:28;;;;;;;;;;;;;;;;;;5011539;28;20430;-61
2024/03/20 10:22:54;;;;;;;14.25;5.32;;;;;;;;;;5012727;28;20370;-62
2024/03/20 10:25:21;;;;;;;11.23;5.55;;;;;;;;;;5012937;28;20045;-60
2024/03/20 10:27:48;;;;;;;12.52;6.53;;;;;;;;;;5012986;28;20572;-61
2024/03/20 10:30:23;;;;;;;12.60;6.63;;;;;;;;;;5011749;28;20026;-60
2024/03/20 10:32:49;;;;;;;11.68;6.18;;;;;;;;;;5013820;28;20017;-61
2024/03/20 10:35:15;;;;;;;11.43;5.60;;;;;;;;;;5013554;28;20084;-62
2024/03/20 10:37:43;;;;;;;12.63;6.68;;;;;;;;;;5014400;28;20029;-61
2024/03/20 10:40:12;;;;;;;12.93;6.70;;;;;;;;;;5011432;28;20022;-61
2024/03/20 10:42:38;;;;;;;13.30;5.85;;;;;;;;;;5013646;28;20029;-62
2024/03/20 10:45:06;;;;;;;11.57;6.13;;;;;;;;;;5015788;28;20414;-61
2024/03/20 10:47:32;;;;;;;16.02;6.90;;;;;;;;;;5023108;28;20022;-62
2024/03/20 10:49:57;;;;;;;11.37;6.37;;;;;;;;;;5025079;28;20085;-60
2024/03/20 10:52:22;;;;;;;13.90;6.73;;;;;;;;;;5036801;28;20038;-61
2024/03/20 10:54:47;;;;;;;12.90;6.55;;;;;;;;;;5028470;28;20022;-61
2024/03/20 10:57:13;;;;;;;12.70;6.70;;;;;;;;;;5030343;28;20025;-61
2024/03/20 10:59:38;;;;;;;13.47;6.27;;;;;;;;;;5029907;28;20026;-60
2024/03/20 11:02:07;;;;;;;12.60;6.95;;;;;;;;;;5028627;28;20986;-62
2024/03/20 11:04:37;;;;;;;11.95;6.57;;;;;;;;;;5031435;28;20029;-61
2024/03/20 11:07:21;;;;;;;12.38;6.78;;;;;;;;;;5031821;28;20042;-61
2024/03/20 11:09:46;;;;;;;12.73;6.75;;;;;;;;;;5026946;28;20049;-62
2024/03/20 11:12:30;;;;;;;13.27;7.03;;;;;;;;;;5011811;28;20030;-62
2024/03/20 11:15:05;;;;;;;12.82;6.68;;;;;;;;;;5011571;28;20451;-60
2024/03/20 11:17:36;;;;;;;13.80;6.38;;;;;;;;;;5007171;28;20058;-61
2024/03/20 11:20:04;;;;;;;13.73;6.32;;;;;;;;;;5011444;28;20026;-61
2024/03/20 11:22:31;;;;;;;11.73;6.30;;;;;;;;;;5011688;28;20014;-61
2024/03/20 11:24:57;;;;;;;12.88;5.82;;;;;;;;;;5011600;28;20023;-62
2024/03/20 11:27:24;;;;;;;11.80;6.25;;;;;;;;;;5011488;28;20026;-61
2024/03/20 11:29:50;;;;;;;11.43;5.95;;;;;;;;;;5011239;28;20409;-61
2024/03/20 11:32:16;;;;;;;12.20;6.57;;;;;;;;;;5010388;28;20029;-61
2024/03/20 11:34:41;;;;;;;10.43;5.97;;;;;;;;;;5011388;28;20026;-62
2024/03/20 11:37:12;;;;;;;11.48;5.97;;;;;;;;;;5011452;28;20490;-61
2024/03/20 11:39:37;;;;;;;12.18;6.45;;;;;;;;;;5013975;28;20021;-62
2024/03/20 11:42:03;;;;;;;10.00;5.75;;;;;;;;;;5014112;28;20160;-61
2024/03/20 11:44:28;;;;;;;11.77;5.93;;;;;;;;;;5011316;28;20030;-60
2024/03/20 11:46:53;;;;;;;12.77;6.60;;;;;;;;;;5011924;28;20479;-61
2024/03/20 11:49:19;;;;;;;11.73;6.47;;;;;;;;;;5010516;28;20073;-61
2024/03/20 11:51:45;;;;;;;11.48;6.07;;;;;;;;;;5010875;28;20025;-62
2024/03/20 11:54:10;;;;;;;11.50;5.78;;;;;;;;;;5010832;28;20029;-61
2024/03/20 11:56:35;;;;;;;11.50;6.03;;;;;;;;;;5010804;28;20417;-61
2024/03/20 11:59:01;;;;;;;13.50;6.20;;;;;;;;;;5011194;28;20026;-61
2024/03/20 12:01:28;;;;;;;13.52;6.60;;;;;;;;;;5011190;28;20026;-62
2024/03/20 12:03:53;;;;;;;14.52;6.45;;;;;;;;;;5009977;28;20538;-61
2024/03/20 12:06:28;;;;;;;15.03;6.63;;;;;;;;;;5026270;28;20048;-61
2024/03/20 12:09:00;;;;;;;12.82;7.25;;;;;;;;;;5009159;28;20473;-60
2024/03/20 12:11:28;;;;;;;13.30;7.35;;;;;;;;;;5017142;28;20390;-62
2024/03/20 12:13:53;;;;;;;12.63;6.45;;;;;;;;;;5035345;28;20026;-62
2024/03/20 12:16:19;;;;;;;12.93;6.73;;;;;;;;;;5014235;28;20060;-62
2024/03/20 12:18:45;;;;;;;12.18;6.40;;;;;;;;;;5026493;28;20025;-61
2024/03/20 12:21:12;;;;;;;13.13;6.13;;;;;;;;;;5011169;28;20028;-62
2024/03/20 12:23:37;;;;;;;15.77;6.53;;;;;;;;;;5011416;28;20045;-62
2024/03/20 12:26:05;;;;;;;13.20;6.40;;;;;;;;;;5009664;28;20030;-62
2024/03/20 12:28:31;;;;;;;10.18;6.00;;;;;;;;;;5022367;28;20038;-63
2024/03/20 12:30:56;;;;;;;11.82;5.88;;;;;;;;;;5033581;28;20069;-61
2024/03/20 12:33:21;;;;;;;10.80;6.00;;;;;;;;;;5031680;28;20048;-62
2024/03/20 12:35:47;;;;;;;12.43;6.63;;;;;;;;;;5033602;28;20030;-63
2024/03/20 12:38:12;;;;;;;11.45;6.07;;;;;;;;;;5019655;28;20018;-60
2024/03/20 12:40:37;;;;;;;11.60;6.10;;;;;;;;;;5014528;28;20084;-61
2024/03/20 12:43:04;;;;;;;12.37;6.40;;;;;;;;;;5029744;28;20493;-61
2024/03/20 12:45:29;;;;;;;13.45;5.97;;;;;;;;;;5014690;28;20581;-62
2024/03/20 12:47:54;;;;;;;10.97;6.33;;;;;;;;;;5014942;28;20037;-60
2024/03/20 12:50:19;;;;;;;12.80;6.80;;;;;;;;;;5013545;28;20045;-60
2024/03/20 12:52:45;;;;;;;14.83;6.07;;;;;;;;;;5012645;28;20504;-62
2024/03/20 12:55:10;;;;;;;12.17;5.87;;;;;;;;;;5014111;28;20068;-62
2024/03/20 12:57:35;;;;;;;13.43;6.57;;;;;;;;;;5012706;28;20030;-61
2024/03/20 13:00:01;;;;;;;11.93;6.38;;;;;;;;;;5015157;28;20026;-62
2024/03/20 13:02:28;;;;;;;11.35;6.00;;;;;;;;;;5013992;28;20172;-61
2024/03/20 13:04:53;;;;;;;10.75;5.88;;;;;;;;;;5014371;28;20493;-61
2024/03/20 13:07:18;;;;;;;13.85;6.22;;;;;;;;;;5014557;28;20017;-61
2024/03/20 13:09:46;;;;;;;11.83;6.63;;;;;;;;;;5027929;28;20133;-61
2024/03/20 13:12:12;;;;;;;12.40;6.50;;;;;;;;;;5008886;28;20509;-61
2024/03/20 13:14:38;;;;;;;12.48;5.78;;;;;;;;;;4997591;28;20509;-61
2024/03/20 13:17:03;;;;;;;11.93;5.73;;;;;;;;;;4994542;28;20018;-60
2024/03/20 13:19:28;;;;;;;12.07;5.85;;;;;;;;;;4993844;28;20050;-61
2024/03/20 13:21:55;;;;;;;13.35;6.00;;;;;;;;;;4993989;28;20026;-61
2024/03/20 13:24:20;;;;;;;12.18;5.57;;;;;;;;;;5000530;28;20038;-61
2024/03/20 13:26:50;;;;;;;12.70;6.20;;;;;;;;;;5010354;28;20099;-62
2024/03/20 13:29:18;;;;;;;11.18;5.60;;;;;;;;;;5013970;28;20460;-61
2024/03/20 13:31:44;;;;;;;11.63;6.03;;;;;;;;;;5016526;28;20045;-62
2024/03/20 13:34:13;;;;;;;10.38;5.65;;;;;;;;;;5016265;28;20564;-61
2024/03/20 13:36:40;;;;;;;10.40;5.60;;;;;;;;;;5013090;28;20028;-60
2024/03/20 13:39:37;;;;;;;12.45;5.70;;;;;;;;;;5013250;28;20045;-62
2024/03/20 13:42:08;;;;;;;11.50;5.93;;;;;;;;;;5010896;28;20382;-61
2024/03/20 13:44:33;;;;;;;11.73;6.18;;;;;;;;;;5012151;28;20394;-61
2024/03/20 13:46:58;;;;;;;9.75;5.30;;;;;;;;;;5012554;28;20099;-60
2024/03/20 13:49:23;;;;;;;10.38;5.55;;;;;;;;;;5007906;28;20034;-62
2024/03/20 13:51:48;;;;;;;10.00;5.43;;;;;;;;;;5012282;28;20022;-62
2024/03/20 13:54:13;;;;;;;13.65;5.68;;;;;;;;;;5008931;28;20504;-61
2024/03/20 13:56:39;;;;;;;11.73;5.25;;;;;;;;;;5010242;28;20014;-62
2024/03/20 13:59:07;;;;;;;9.67;4.87;;;;;;;;;;5009738;28;20080;-62
2024/03/20 14:01:36;;;;;;;10.48;5.70;;;;;;;;;;5019215;28;20025;-60
2024/03/20 14:04:01;;;;;;;10.70;5.43;;;;;;;;;;5027297;28;20053;-61
2024/03/20 14:06:27;;;;;;;11.02;5.30;;;;;;;;;;5012548;28;20025;-61
2024/03/20 14:08:56;;;;;;;11.90;6.35;;;;;;;;;;5012480;28;20049;-61
2024/03/20 14:11:22;;;;;;;10.50;5.63;;;;;;;;;;5008622;28;20591;-61
2024/03/20 14:13:47;;;;;;;11.13;5.53;;;;;;;;;;5009440;28;20025;-60
2024/03/20 14:16:19;;;;;;;9.73;5.10;;;;;;;;;;5009428;28;20021;-61
2024/03/20 14:18:44;;;;;;;10.68;5.40;;;;;;;;;;5015943;28;20382;-63
2024/03/20 14:21:12;;;;;;;12.07;5.72;;;;;;;;;;5011043;28;20028;-62
2024/03/20 14:23:37;;;;;;;11.60;6.07;;;;;;;;;;5010380;28;20402;-62